createdAt,value
2022-09-30T00:00:35.046Z,76.47
2022-09-30T00:03:01.770Z,80.70
2022-09-30T00:05:28.374Z,88.82
2022-09-30T00:07:55.215Z,90.35
2022-09-30T00:10:22.029Z,88.38
2022-09-30T00:12:48.510Z,89.43
2022-09-30T00:15:15.101Z,82.53
2022-09-30T00:17:41.624Z,84.00
2022-09-30T00:20:08.502Z,92.38
2022-09-30T00:22:35.412Z,79.13
2022-09-30T00:25:02.487Z,83.07
2022-09-30T00:27:29.036Z,87.80
2022-09-30T00:29:55.835Z,90.80
2022-09-30T00:32:22.322Z,90.72
2022-09-30T00:34:48.854Z,95.60
2022-09-30T00:37:16.795Z,88.93
2022-09-30T00:39:43.306Z,85.70
2022-09-30T00:42:14.728Z,95.03
2022-09-30T00:44:55.038Z,87.40
2022-09-30T00:47:33.254Z,83.57
2022-09-30T00:50:05.923Z,82.43
2022-09-30T00:52:32.866Z,89.15
2022-09-30T00:55:02.886Z,85.50
2022-09-30T00:57:29.769Z,82.88
2022-09-30T00:59:56.478Z,82.95
2022-09-30T01:02:24.227Z,81.30
2022-09-30T01:04:50.864Z,87.15
2022-09-30T01:07:18.059Z,86.38
2022-09-30T01:09:45.211Z,79.35
2022-09-30T01:12:19.030Z,88.03
2022-09-30T01:14:47.499Z,86.57
2022-09-30T01:17:32.159Z,89.70
2022-09-30T01:20:53.206Z,80.70
2022-09-30T01:23:47.547Z,85.95
2022-09-30T01:26:38.070Z,85.50
2022-09-30T01:29:32.483Z,87.50
2022-09-30T01:31:59.622Z,80.47
2022-09-30T01:34:38.405Z,87.93
2022-09-30T01:37:22.492Z,93.65
2022-09-30T01:40:10.139Z,93.32
2022-09-30T01:43:04.374Z,93.88
2022-09-30T01:45:47.272Z,90.10
2022-09-30T01:48:32.682Z,95.40
2022-09-30T01:51:05.246Z,97.88
2022-09-30T01:53:50.859Z,95.30
2022-09-30T01:56:23.766Z,94.72
2022-09-30T01:59:16.261Z,94.50
2022-09-30T02:01:58.684Z,90.53
2022-09-30T02:04:31.741Z,91.90
2022-09-30T02:07:03.982Z,95.47
2022-09-30T02:09:38.721Z,89.70
2022-09-30T02:12:10.597Z,99.18
2022-09-30T02:14:46.283Z,96.65
2022-09-30T02:17:20.354Z,99.32
2022-09-30T02:19:58.702Z,104.05
2022-09-30T02:22:31.390Z,100.72
2022-09-30T02:25:03.795Z,97.90
2022-09-30T02:27:41.085Z,99.32
2022-09-30T02:30:09.577Z,96.47
2022-09-30T02:32:42.286Z,102.18
2022-09-30T02:35:32.314Z,104.82
2022-09-30T02:38:03.679Z,95.25
2022-09-30T02:40:30.179Z,98.32
2022-09-30T02:42:57.583Z,94.88
2022-09-30T02:45:24.495Z,99.82
2022-09-30T02:48:07.839Z,103.32
2022-09-30T02:50:43.314Z,105.85
2022-09-30T02:53:33.482Z,101.22
2022-09-30T02:56:14.634Z,95.20
2022-09-30T02:58:43.547Z,99.28
2022-09-30T03:01:12.797Z,97.72
2022-09-30T03:03:53.879Z,100.63
2022-09-30T03:06:20.686Z,97.40
2022-09-30T03:08:47.792Z,97.30
2022-09-30T03:11:19.468Z,95.20
2022-09-30T03:14:09.130Z,98.03
2022-09-30T03:17:09.582Z,99.00
2022-09-30T03:20:10.154Z,96.15
2022-09-30T03:23:10.594Z,95.57
2022-09-30T03:26:14.712Z,90.60
2022-09-30T03:29:14.177Z,94.93
2022-09-30T03:32:05.812Z,95.10
2022-09-30T03:34:57.796Z,92.45
2022-09-30T03:37:49.259Z,96.05
2022-09-30T03:40:23.393Z,88.07
2022-09-30T03:43:18.811Z,96.88
2022-09-30T03:46:01.211Z,92.80
2022-09-30T03:48:29.890Z,87.05
2022-09-30T03:50:57.066Z,97.10
2022-09-30T03:53:26.186Z,100.40
2022-09-30T03:55:53.014Z,92.07
2022-09-30T03:58:23.303Z,90.63
2022-09-30T04:00:53.052Z,96.68
2022-09-30T04:03:21.658Z,98.35
2022-09-30T04:05:48.960Z,96.03
2022-09-30T04:08:16.233Z,99.97
2022-09-30T04:10:44.102Z,97.25
2022-09-30T04:13:12.007Z,97.95
2022-09-30T04:15:39.088Z,90.50
2022-09-30T04:18:06.271Z,93.50
2022-09-30T04:20:33.503Z,94.63
2022-09-30T04:23:01.157Z,95.45
2022-09-30T04:25:28.709Z,103.88
2022-09-30T04:27:55.265Z,101.35
2022-09-30T04:30:25.660Z,93.50
2022-09-30T04:32:53.909Z,97.85
2022-09-30T04:35:20.495Z,101.47
2022-09-30T04:37:47.549Z,97.93
2022-09-30T04:40:16.064Z,93.80
2022-09-30T04:42:43.140Z,100.55
2022-09-30T04:45:11.610Z,98.07
2022-09-30T04:47:38.207Z,96.63
2022-09-30T04:50:05.903Z,97.85
2022-09-30T04:52:32.389Z,90.18
2022-09-30T04:54:58.863Z,92.25
2022-09-30T04:57:25.478Z,92.25
2022-09-30T04:59:52.328Z,86.18
2022-09-30T05:02:18.969Z,95.93
2022-09-30T05:04:45.622Z,86.30
2022-09-30T05:07:12.127Z,83.78
2022-09-30T05:09:38.738Z,85.45
2022-09-30T05:12:05.264Z,90.13
2022-09-30T05:14:32.212Z,83.00
2022-09-30T05:16:58.782Z,86.82
2022-09-30T05:19:25.562Z,87.60
2022-09-30T05:21:52.572Z,82.50
2022-09-30T05:24:19.133Z,79.38
2022-09-30T05:26:45.630Z,79.68
2022-09-30T05:29:12.270Z,74.35
2022-09-30T05:31:38.905Z,80.75
2022-09-30T05:34:05.493Z,76.82
2022-09-30T05:36:32.284Z,79.60
2022-09-30T05:38:58.800Z,77.35
2022-09-30T05:41:25.375Z,75.97
2022-09-30T05:43:52.051Z,75.55
2022-09-30T05:46:19.954Z,80.45
2022-09-30T05:48:46.944Z,78.78
2022-09-30T05:51:13.822Z,85.15
2022-09-30T05:53:41.240Z,74.90
2022-09-30T05:56:09.718Z,78.28
2022-09-30T05:58:37.765Z,90.93
2022-09-30T06:01:14.262Z,83.88
2022-09-30T06:03:42.713Z,82.72
2022-09-30T06:06:10.153Z,80.75
2022-09-30T06:08:36.748Z,78.72
2022-09-30T06:11:11.884Z,74.80
2022-09-30T06:13:39.765Z,83.10
2022-09-30T06:16:07.512Z,74.78
2022-09-30T06:18:34.784Z,82.05
2022-09-30T06:21:04.159Z,78.35
2022-09-30T06:23:35.088Z,78.88
2022-09-30T06:26:02.692Z,84.22
2022-09-30T06:28:29.190Z,83.32
2022-09-30T06:30:56.095Z,82.00
2022-09-30T06:33:22.823Z,81.13
2022-09-30T06:35:50.955Z,84.35
2022-09-30T06:38:18.043Z,80.70
2022-09-30T06:40:45.915Z,80.72
2022-09-30T06:43:12.483Z,84.97
2022-09-30T06:45:39.088Z,77.32
2022-09-30T06:48:08.312Z,81.15
2022-09-30T06:50:35.083Z,82.55
2022-09-30T06:53:06.193Z,83.50
2022-09-30T06:55:33.964Z,82.70
2022-09-30T06:58:00.551Z,80.20
2022-09-30T07:00:28.972Z,88.05
2022-09-30T07:02:59.317Z,93.25
2022-09-30T07:05:26.429Z,84.60
2022-09-30T07:07:54.025Z,89.63
2022-09-30T07:10:20.622Z,99.95
2022-09-30T07:12:51.469Z,105.38
2022-09-30T07:15:22.945Z,112.93
2022-09-30T07:17:59.142Z,99.10
2022-09-30T07:20:25.760Z,114.45
2022-09-30T07:22:52.296Z,103.60
2022-09-30T07:25:19.901Z,100.85
2022-09-30T07:27:46.852Z,96.88
2022-09-30T07:30:22.817Z,101.63
2022-09-30T07:32:53.522Z,101.65
2022-09-30T07:35:20.766Z,110.30
2022-09-30T07:37:47.724Z,117.95
2022-09-30T07:40:15.189Z,122.95
2022-09-30T07:42:45.878Z,116.00
2022-09-30T07:45:16.028Z,104.60
2022-09-30T07:47:42.624Z,114.38
2022-09-30T07:50:10.812Z,104.20
2022-09-30T07:52:37.421Z,98.95
2022-09-30T07:55:04.341Z,112.28
2022-09-30T07:57:30.848Z,103.47
2022-09-30T07:59:57.335Z,134.70
2022-09-30T08:02:24.737Z,136.10
2022-09-30T08:04:51.294Z,126.82
2022-09-30T08:07:18.548Z,119.70
2022-09-30T08:09:45.241Z,123.93
2022-09-30T08:12:11.863Z,124.82
2022-09-30T08:14:38.360Z,114.18
2022-09-30T08:17:05.010Z,115.47
2022-09-30T08:19:33.728Z,109.45
2022-09-30T08:22:00.432Z,113.00
2022-09-30T08:24:27.439Z,127.30
2022-09-30T08:26:54.839Z,155.15
2022-09-30T08:29:42.523Z,157.52
2022-09-30T08:32:08.711Z,138.10
2022-09-30T08:34:35.766Z,121.85
2022-09-30T08:37:08.397Z,118.72
2022-09-30T08:39:35.785Z,103.68
2022-09-30T08:42:37.930Z,104.55
2022-09-30T08:45:37.388Z,100.90
2022-09-30T08:48:42.200Z,94.05
2022-09-30T08:51:33.286Z,110.97
2022-09-30T08:54:03.030Z,103.88
2022-09-30T08:56:31.556Z,100.90
2022-09-30T08:59:13.285Z,97.45
2022-09-30T09:01:45.610Z,96.00
2022-09-30T09:04:13.879Z,94.65
2022-09-30T09:06:54.823Z,105.60
2022-09-30T09:09:35.583Z,106.45
2022-09-30T09:12:15.658Z,121.78
2022-09-30T09:15:15.115Z,109.38
2022-09-30T09:18:04.557Z,131.98
2022-09-30T09:20:41.275Z,151.38
2022-09-30T09:23:12.434Z,121.70
2022-09-30T09:25:39.610Z,149.25
2022-09-30T09:28:18.558Z,181.52
2022-09-30T09:30:52.014Z,171.93
2022-09-30T09:33:26.213Z,191.25
2022-09-30T09:35:58.079Z,183.70
2022-09-30T09:38:36.115Z,191.15
2022-09-30T09:41:33.399Z,203.50
2022-09-30T09:44:09.831Z,220.32
2022-09-30T09:46:47.966Z,218.10
2022-09-30T09:49:20.621Z,196.90
2022-09-30T09:51:59.408Z,209.52
2022-09-30T09:54:31.180Z,247.75
2022-09-30T09:57:07.351Z,283.00
2022-09-30T09:59:33.820Z,275.45
2022-09-30T10:02:00.413Z,280.92
2022-09-30T10:04:30.518Z,300.70
2022-09-30T10:07:02.151Z,264.52
2022-09-30T10:09:31.301Z,248.35
2022-09-30T10:12:06.918Z,188.32
2022-09-30T10:14:46.348Z,171.35
2022-09-30T10:17:40.802Z,195.18
2022-09-30T10:20:16.444Z,174.27
2022-09-30T10:22:43.279Z,197.70
2022-09-30T10:25:19.133Z,202.18
2022-09-30T10:28:03.969Z,219.00
2022-09-30T10:30:39.300Z,211.50
2022-09-30T10:33:14.490Z,228.50
2022-09-30T10:36:17.353Z,223.52
2022-09-30T10:39:01.165Z,218.38
2022-09-30T10:41:33.133Z,232.50
2022-09-30T10:44:03.121Z,238.07
2022-09-30T10:46:37.643Z,220.90
2022-09-30T10:49:32.007Z,243.80
2022-09-30T10:52:01.179Z,270.30
2022-09-30T10:54:44.645Z,279.88
2022-09-30T10:57:23.587Z,275.95
2022-09-30T10:59:54.867Z,283.60
2022-09-30T11:02:44.409Z,325.83
2022-09-30T11:05:24.542Z,344.98
2022-09-30T11:07:57.170Z,357.27
2022-09-30T11:10:51.481Z,461.50
2022-09-30T11:13:30.023Z,451.35
2022-09-30T11:16:13.569Z,384.60
2022-09-30T11:18:56.231Z,476.55
2022-09-30T11:21:28.720Z,520.83
2022-09-30T11:24:03.306Z,561.63
2022-09-30T11:27:11.591Z,591.95
2022-09-30T11:29:47.211Z,660.67
2022-09-30T11:32:22.522Z,652.05
2022-09-30T11:35:09.796Z,642.22
2022-09-30T11:37:51.536Z,622.88
2022-09-30T11:40:28.534Z,584.83
2022-09-30T11:43:07.435Z,546.67
2022-09-30T11:45:46.779Z,390.00
2022-09-30T11:48:32.977Z,337.77
2022-09-30T11:51:17.641Z,519.50
2022-09-30T11:53:53.308Z,688.70
2022-09-30T11:56:42.487Z,361.73
2022-09-30T11:59:31.966Z,469.75
2022-09-30T12:02:03.911Z,321.70
2022-09-30T12:04:35.793Z,539.92
2022-09-30T12:07:41.683Z,630.15
2022-09-30T12:10:21.443Z,247.18
2022-09-30T12:12:53.687Z,466.58
2022-09-30T12:15:23.967Z,468.48
2022-09-30T12:18:09.601Z,436.25
2022-09-30T12:20:59.600Z,289.85
2022-09-30T12:23:39.701Z,143.75
2022-09-30T12:26:06.558Z,116.22
2022-09-30T12:29:03.804Z,51.20
2022-09-30T12:32:04.248Z,20.63
2022-09-30T12:35:08.010Z,23.85
2022-09-30T12:40:40.767Z,27.30
2022-09-30T12:43:07.186Z,17.65
2022-09-30T12:45:48.868Z,16.27
2022-09-30T12:48:20.946Z,15.27
2022-09-30T12:50:57.792Z,15.75
2022-09-30T12:53:33.915Z,12.95
2022-09-30T12:56:10.918Z,12.45
2022-09-30T12:58:43.987Z,12.18
2022-09-30T13:01:22.611Z,12.65
2022-09-30T13:03:53.165Z,13.68
2022-09-30T13:06:21.975Z,13.45
2022-09-30T13:08:57.264Z,17.55
2022-09-30T13:11:37.439Z,21.27
2022-09-30T13:14:36.169Z,30.42
2022-09-30T13:17:08.440Z,33.42
2022-09-30T13:19:40.408Z,40.33
2022-09-30T13:22:18.958Z,36.75
2022-09-30T13:25:00.698Z,30.15
2022-09-30T13:27:34.656Z,26.48
2022-09-30T13:30:03.044Z,20.10
2022-09-30T13:32:37.823Z,20.45
2022-09-30T13:35:33.193Z,22.17
2022-09-30T13:38:11.879Z,18.70
2022-09-30T13:41:02.965Z,16.00
2022-09-30T13:43:56.532Z,15.20
2022-09-30T13:46:30.423Z,15.73
2022-09-30T13:51:33.201Z,21.13
2022-09-30T13:54:09.938Z,27.52
2022-09-30T13:56:40.806Z,34.58
2022-09-30T13:59:10.103Z,51.22
2022-09-30T14:01:37.632Z,53.25
2022-09-30T14:04:47.504Z,48.25
2022-09-30T14:07:18.163Z,47.92
2022-09-30T14:09:47.668Z,43.00
2022-09-30T14:12:32.663Z,42.80
2022-09-30T14:15:20.055Z,34.58
2022-09-30T14:18:23.272Z,34.70
2022-09-30T14:21:24.313Z,26.52
2022-09-30T14:24:17.672Z,25.85
2022-09-30T14:27:00.855Z,24.90
2022-09-30T14:29:57.141Z,44.53
2022-09-30T14:32:30.637Z,51.65
2022-09-30T14:35:00.080Z,41.83
2022-09-30T14:37:30.999Z,30.15
2022-09-30T14:39:58.464Z,24.48
2022-09-30T14:42:36.097Z,28.25
2022-09-30T14:45:05.637Z,37.30
2022-09-30T14:47:45.483Z,36.97
2022-09-30T14:50:20.143Z,28.80
2022-09-30T14:52:50.109Z,27.70
2022-09-30T14:55:35.095Z,21.08
2022-09-30T14:58:19.951Z,19.20
2022-09-30T15:00:50.458Z,16.83
2022-09-30T15:03:17.107Z,16.70
2022-09-30T15:05:43.686Z,16.00
2022-09-30T15:08:12.922Z,17.73
2022-09-30T15:10:47.275Z,17.17
2022-09-30T15:13:14.929Z,19.25
2022-09-30T15:15:41.527Z,16.60
2022-09-30T15:18:26.244Z,17.17
2022-09-30T15:20:57.190Z,17.77
2022-09-30T15:23:31.183Z,18.58
2022-09-30T15:28:26.165Z,21.55
2022-09-30T15:30:56.508Z,21.60
2022-09-30T15:33:31.981Z,17.23
2022-09-30T15:36:07.362Z,16.65
2022-09-30T15:38:37.245Z,17.35
2022-09-30T15:41:09.893Z,17.63
2022-09-30T15:43:39.505Z,15.48
2022-09-30T15:46:26.221Z,18.35
2022-09-30T15:48:55.361Z,16.55
2022-09-30T15:51:26.475Z,18.00
2022-09-30T15:53:53.457Z,17.98
2022-09-30T15:56:19.956Z,21.48
2022-09-30T15:59:03.911Z,25.73
2022-09-30T16:01:37.011Z,35.72
2022-09-30T16:04:11.055Z,45.33
2022-09-30T16:06:45.730Z,55.78
2022-09-30T16:09:18.659Z,53.85
2022-09-30T16:11:56.198Z,65.13
2022-09-30T16:14:28.644Z,68.32
2022-09-30T16:16:59.374Z,61.70
2022-09-30T16:19:28.517Z,44.28
2022-09-30T16:21:55.728Z,38.88
2022-09-30T16:24:22.154Z,32.30
2022-09-30T16:26:53.155Z,33.13
2022-09-30T16:29:19.748Z,30.60
2022-09-30T16:31:49.915Z,28.33
2022-09-30T16:34:23.904Z,29.25
2022-09-30T16:36:52.667Z,32.35
2022-09-30T16:39:19.788Z,39.28
2022-09-30T16:41:46.829Z,56.35
2022-09-30T16:44:13.866Z,75.07
2022-09-30T16:46:40.416Z,99.95
2022-09-30T16:49:15.585Z,114.43
2022-09-30T16:51:42.985Z,134.25
2022-09-30T16:54:10.402Z,159.25
2022-09-30T16:56:36.914Z,180.77
2022-09-30T16:59:04.457Z,229.80
2022-09-30T17:01:31.011Z,257.38
2022-09-30T17:03:58.382Z,287.73
2022-09-30T17:06:30.482Z,277.95
2022-09-30T17:08:58.083Z,278.48
2022-09-30T17:11:33.249Z,269.85
2022-09-30T17:14:01.294Z,262.35
2022-09-30T17:16:28.528Z,235.32
2022-09-30T17:18:55.395Z,170.35
2022-09-30T17:21:25.067Z,145.95
2022-09-30T17:23:52.344Z,116.85
2022-09-30T17:26:18.864Z,99.47
2022-09-30T17:28:46.259Z,89.05
2022-09-30T17:31:12.927Z,100.40
2022-09-30T17:33:41.064Z,285.45
2022-09-30T17:36:10.406Z,300.60
2022-09-30T17:38:37.820Z,234.85
2022-09-30T17:41:23.794Z,129.32
2022-09-30T17:43:50.358Z,87.78
2022-09-30T17:46:21.194Z,79.50
2022-09-30T17:48:48.650Z,91.85
2022-09-30T17:51:16.494Z,93.40
2022-09-30T17:53:44.509Z,95.20
2022-09-30T17:56:20.068Z,96.55
2022-09-30T17:58:48.964Z,91.30
2022-09-30T18:01:17.980Z,97.05
2022-09-30T18:03:45.834Z,105.68
2022-09-30T18:06:14.733Z,115.90
2022-09-30T18:08:42.712Z,106.43
2022-09-30T18:11:09.230Z,103.60
2022-09-30T18:13:35.774Z,95.10
2022-09-30T18:16:06.859Z,86.25
2022-09-30T18:18:36.471Z,93.72
2022-09-30T18:21:03.003Z,102.13
2022-09-30T18:23:29.531Z,113.03
2022-09-30T18:25:57.080Z,117.25
2022-09-30T18:28:23.670Z,123.18
2022-09-30T18:30:50.246Z,144.75
2022-09-30T18:33:18.734Z,169.27
2022-09-30T18:35:46.499Z,169.35
2022-09-30T18:38:14.946Z,182.00
2022-09-30T18:40:46.070Z,231.68
2022-09-30T18:43:14.285Z,308.88
2022-09-30T18:45:43.581Z,341.90
2022-09-30T18:48:11.057Z,360.75
2022-09-30T18:50:38.654Z,385.42
2022-09-30T18:53:09.859Z,405.27
2022-09-30T18:55:38.278Z,398.25
2022-09-30T18:58:05.350Z,413.02
2022-09-30T19:00:31.985Z,444.92
2022-09-30T19:02:58.515Z,459.80
2022-09-30T19:05:25.086Z,480.65
2022-09-30T19:07:53.559Z,483.67
2022-09-30T19:10:20.352Z,502.75
2022-09-30T19:12:46.881Z,494.73
2022-09-30T19:15:17.660Z,504.27
2022-09-30T19:17:45.375Z,507.63
2022-09-30T19:20:14.028Z,507.15
2022-09-30T19:22:40.688Z,515.13
2022-09-30T19:25:11.106Z,524.30
2022-09-30T19:27:38.501Z,523.95
2022-09-30T19:30:12.011Z,511.85
2022-09-30T19:32:38.795Z,506.57
2022-09-30T19:35:10.292Z,508.88
2022-09-30T19:37:37.262Z,480.65
2022-09-30T19:40:18.730Z,490.85
2022-09-30T19:42:47.666Z,462.52
2022-09-30T19:45:16.357Z,466.88
2022-09-30T19:47:43.082Z,466.65
2022-09-30T19:50:09.814Z,458.17
2022-09-30T19:52:42.013Z,418.23
2022-09-30T19:55:16.839Z,420.50
2022-09-30T19:57:43.784Z,407.75
2022-09-30T20:00:12.952Z,421.50
2022-09-30T20:02:39.684Z,419.92
2022-09-30T20:05:07.044Z,385.17
2022-09-30T20:07:37.986Z,368.58
2022-09-30T20:10:04.961Z,372.02
2022-09-30T20:12:31.499Z,344.85
2022-09-30T20:15:16.314Z,328.20
2022-09-30T20:20:28.528Z,236.40
2022-09-30T20:22:55.076Z,240.38
2022-09-30T20:25:21.633Z,263.83
2022-09-30T20:27:52.234Z,248.65
2022-09-30T20:30:19.980Z,244.75
2022-09-30T20:32:46.522Z,224.45
2022-09-30T20:35:13.174Z,216.50
2022-09-30T20:37:40.855Z,242.73
2022-09-30T20:40:09.320Z,268.90
2022-09-30T20:42:37.899Z,259.33
2022-09-30T20:45:10.649Z,253.20
2022-09-30T20:47:38.671Z,246.15
2022-09-30T20:50:06.684Z,223.10
2022-09-30T20:52:33.243Z,231.63
2022-09-30T20:55:00.342Z,243.50
2022-09-30T20:57:31.550Z,247.40
2022-09-30T20:59:59.939Z,232.40
2022-09-30T21:02:29.853Z,230.95
2022-09-30T21:04:57.985Z,224.43
2022-09-30T21:07:25.317Z,219.27
2022-09-30T21:09:52.410Z,240.13
2022-09-30T21:12:19.307Z,232.23
2022-09-30T21:14:46.186Z,213.82
2022-09-30T21:17:12.699Z,194.57
2022-09-30T21:19:40.088Z,189.20
2022-09-30T21:22:07.117Z,189.23
2022-09-30T21:24:33.776Z,164.65
2022-09-30T21:27:01.597Z,194.15
2022-09-30T21:29:30.468Z,197.60
2022-09-30T21:31:57.223Z,172.20
2022-09-30T21:34:24.436Z,167.68
2022-09-30T21:36:50.972Z,167.45
2022-09-30T21:39:17.580Z,147.85
2022-09-30T21:41:44.759Z,149.15
2022-09-30T21:44:11.302Z,160.30
2022-09-30T21:46:37.886Z,152.93
2022-09-30T21:49:18.127Z,146.63
2022-09-30T21:51:45.347Z,134.00
2022-09-30T21:54:13.693Z,140.05
2022-09-30T21:56:42.703Z,138.15
2022-09-30T21:59:10.569Z,136.98
2022-09-30T22:01:39.727Z,140.90
2022-09-30T22:04:06.686Z,137.32
2022-09-30T22:06:33.210Z,139.27
2022-09-30T22:09:03.048Z,143.25
2022-09-30T22:11:31.537Z,137.45
2022-09-30T22:14:00.242Z,132.65
2022-09-30T22:16:34.864Z,137.10
2022-09-30T22:19:05.069Z,136.38
2022-09-30T22:21:33.649Z,133.13
2022-09-30T22:24:02.183Z,139.20
2022-09-30T22:26:31.493Z,144.95
2022-09-30T22:29:01.382Z,142.45
2022-09-30T22:31:29.899Z,134.77
2022-09-30T22:34:25.779Z,150.70
2022-09-30T22:37:11.764Z,130.63
2022-09-30T22:39:38.299Z,138.35
2022-09-30T22:42:05.033Z,146.50
2022-09-30T22:44:36.906Z,151.13
2022-09-30T22:47:04.482Z,159.35
2022-09-30T22:49:34.324Z,153.15
2022-09-30T22:52:02.061Z,163.93
2022-09-30T22:54:29.165Z,157.73
2022-09-30T22:56:56.113Z,167.77
2022-09-30T22:59:23.605Z,171.25
2022-09-30T23:01:50.793Z,163.07
2022-09-30T23:04:18.026Z,178.88
2022-09-30T23:06:52.123Z,177.43
2022-09-30T23:09:20.848Z,171.00
2022-09-30T23:11:48.456Z,197.80
2022-09-30T23:14:14.932Z,189.00
2022-09-30T23:16:41.892Z,199.77
2022-09-30T23:19:08.495Z,207.90
2022-09-30T23:21:35.829Z,207.50
2022-09-30T23:24:02.796Z,203.70
2022-09-30T23:26:31.153Z,221.23
2022-09-30T23:29:00.112Z,220.77
2022-09-30T23:31:27.755Z,221.98
2022-09-30T23:33:56.824Z,222.23
2022-09-30T23:36:32.167Z,228.45
2022-09-30T23:39:09.201Z,208.32
2022-09-30T23:41:36.022Z,220.77
2022-09-30T23:44:04.319Z,232.75
2022-09-30T23:46:31.718Z,230.77
2022-09-30T23:48:58.363Z,223.45
2022-09-30T23:51:24.918Z,224.75
2022-09-30T23:53:51.466Z,234.32
2022-09-30T23:56:19.321Z,245.50
2022-09-30T23:58:46.793Z,221.70
